Latest Weather Observations for Hope Banks Beacon

IDQ60901

Issued at 5:01 am EST Tuesday 26 October 2021 (issued every 10 minutes, with the page automatically refreshed every 10 minutes)

About weather observations | Map of Brisbane area stations | Latest observations for Brisbane area | Other Formats
Station Details ID: 200897 Name: HOPE BANKS BEACON Lat: -27.43 Lon: 153.29 Height: 7.0 m
Data from the previous 72 hours. | See also: Recent months for locations in Queensland
Date/Time
EST
Temp
°C
App
Temp
°C
Dew
Point
°C
Rel
Hum
%
Delta-T
°C
Wind Press
QNH
hPa
Press
MSL
hPa
Rain since
9am
mm
Dir  Spd
km/h
Gust
km/h
Spd
kts
Gust
kts
26/05:00am - - - - - NNW 17 19 9 10 - - -
26/04:30am - - - - - NNW 19 20 10 11 - - -
26/04:00am - - - - - NNW 15 19 8 10 - - -
26/03:30am - - - - - NW 11 15 6 8 - - -
26/03:00am - - - - - NNW 17 20 9 11 - - -
26/02:30am - - - - - NW 7 11 4 6 - - -
26/02:00am - - - - - WNW 13 19 7 10 - - -
26/01:30am - - - - - WNW 17 22 9 12 - - -
26/01:00am - - - - - NW 20 26 11 14 - - -
26/12:30am - - - - - NW 22 28 12 15 - - -
26/12:00am - - - - - NW 17 19 9 10 - - -
 
Date/Time
EST
Temp
°C
App
Temp
°C
Dew
Point
°C
Rel
Hum
%
Delta-T
°C
Wind Press
QNH
hPa
Press
MSL
hPa
Rain since
9am
mm
Dir  Spd
km/h
Gust
km/h
Spd
kts
Gust
kts
25/11:30pm - - - - - NW 20 24 11 13 - - -
25/11:00pm - - - - - NW 20 24 11 13 - - -
25/10:30pm - - - - - NW 19 22 10 12 - - -
25/10:00pm - - - - - NW 20 24 11 13 - - -
25/09:30pm - - - - - NW 26 32 14 17 - - -
25/09:00pm - - - - - NW 24 30 13 16 - - -
25/08:30pm - - - - - NW 22 24 12 13 - - -
25/08:00pm - - - - - NW 22 28 12 15 - - -
25/07:30pm - - - - - N 26 32 14 17 - - -
25/07:00pm - - - - - NNW 28 33 15 18 - - -
25/06:30pm - - - - - NW 30 33 16 18 - - -
25/06:00pm - - - - - NW 33 41 18 22 - - -
25/05:53pm - - - - - NW 32 39 17 21 - - -
25/05:30pm - - - - - WNW 17 19 9 10 - - -
25/05:00pm - - - - - N 15 20 8 11 - - -
25/04:30pm - - - - - N 13 17 7 9 - - -
25/04:00pm - - - - - NNE 15 20 8 11 - - -
25/03:30pm - - - - - NE 19 22 10 12 - - -
25/03:00pm - - - - - NNE 26 32 14 17 - - -
25/02:30pm - - - - - NNE 20 30 11 16 - - -
25/02:00pm - - - - - NNE 17 26 9 14 - - -
25/01:30pm - - - - - NNE 9 15 5 8 - - -
25/01:00pm - - - - - NNE 13 15 7 8 - - -
25/12:30pm - - - - - NNE 11 17 6 9 - - -
25/12:00pm - - - - - NE 9 15 5 8 - - -
25/11:30am - - - - - NNE 11 17 6 9 - - -
25/11:00am - - - - - NNE 11 17 6 9 - - -
25/10:30am - - - - - NNE 13 19 7 10 - - -
25/10:00am - - - - - NNE 15 22 8 12 - - -
25/09:30am - - - - - NNE 9 17 5 9 - - -
25/09:00am - - - - - NE 13 17 7 9 - - -
25/08:30am - - - - - NE 11 17 6 9 - - -
25/08:00am - - - - - NE 11 17 6 9 - - -
25/07:30am - - - - - ENE 11 13 6 7 - - -
25/07:00am - - - - - ENE 13 15 7 8 - - -
25/06:30am - - - - - ENE 11 13 6 7 - - -
25/06:00am - - - - - ESE 6 9 3 5 - - -
25/05:30am - - - - - E 9 13 5 7 - - -
25/05:00am - - - - - E 15 19 8 10 - - -
25/04:30am - - - - - E 19 22 10 12 - - -
25/04:00am - - - - - E 17 19 9 10 - - -
25/03:30am - - - - - E 19 20 10 11 - - -
25/03:00am - - - - - ESE 19 22 10 12 - - -
25/02:30am - - - - - ESE 20 26 11 14 - - -
25/02:00am - - - - - ESE 20 24 11 13 - - -
25/01:30am - - - - - ESE 22 26 12 14 - - -
25/01:00am - - - - - ESE 20 24 11 13 - - -
25/12:30am - - - - - ESE 24 28 13 15 - - -
25/12:00am - - - - - ESE 28 33 15 18 - - -
 
Date/Time
EST
Temp
°C
App
Temp
°C
Dew
Point
°C
Rel
Hum
%
Delta-T
°C
Wind Press
QNH
hPa
Press
MSL
hPa
Rain since
9am
mm
Dir  Spd
km/h
Gust
km/h
Spd
kts
Gust
kts
24/11:30pm - - - - - ESE 26 32 14 17 - - -
24/11:00pm - - - - - ESE 28 37 15 20 - - -
24/10:30pm - - - - - SE 30 37 16 20 - - -
24/10:00pm - - - - - SE 32 37 17 20 - - -
24/09:30pm - - - - - SE 33 39 18 21 - - -
24/09:00pm - - - - - SE 32 37 17 20 - - -
24/08:30pm - - - - - SE 32 37 17 20 - - -
24/08:00pm - - - - - SE 30 37 16 20 - - -
24/07:30pm - - - - - SSE 26 33 14 18 - - -
24/07:00pm - - - - - ESE 13 20 7 11 - - -
24/06:30pm - - - - - CALM 0 0 0 0 - - -
24/06:00pm - - - - - CALM 0 0 0 0 - - -
24/05:30pm - - - - - SW 7 13 4 7 - - -
24/05:00pm - - - - - SSW 6 6 3 3 - - -
24/04:30pm - - - - - SW 11 15 6 8 - - -
24/04:00pm - - - - - WSW 22 28 12 15 - - -
24/03:30pm - - - - - WSW 24 30 13 16 - - -
24/03:00pm - - - - - W 28 35 15 19 - - -
24/02:30pm - - - - - WSW 28 37 15 20 - - -
24/02:00pm - - - - - W 30 41 16 22 - - -
24/01:30pm - - - - - WSW 22 30 12 16 - - -
24/01:00pm - - - - - WSW 32 39 17 21 - - -
24/12:30pm - - - - - WSW 24 30 13 16 - - -
24/12:00pm - - - - - W 20 28 11 15 - - -
24/11:30am - - - - - W 19 24 10 13 - - -
24/11:00am - - - - - W 20 22 11 12 - - -
24/10:30am - - - - - W 20 28 11 15 - - -
24/10:00am - - - - - W 19 26 10 14 - - -
24/09:30am - - - - - WNW 13 15 7 8 - - -
24/09:00am - - - - - WNW 11 13 6 7 - - -
24/08:30am - - - - - WNW 11 13 6 7 - - -
24/08:00am - - - - - W 2 7 1 4 - - -
24/07:30am - - - - - CALM 0 0 0 0 - - -
24/07:00am - - - - - WSW 4 6 2 3 - - -
24/06:30am - - - - - CALM 0 4 0 2 - - -
24/06:00am - - - - - W 2 4 1 2 - - -
24/05:30am - - - - - W 4 6 2 3 - - -
24/05:00am - - - - - WNW 9 11 5 6 - - -
24/04:30am - - - - - NW 15 17 8 9 - - -
24/04:00am - - - - - NNW 19 24 10 13 - - -
24/03:30am - - - - - NNW 20 24 11 13 - - -
24/03:00am - - - - - N 24 30 13 16 - - -
24/02:30am - - - - - N 30 35 16 19 - - -
24/02:00am - - - - - N 26 32 14 17 - - -
24/01:30am - - - - - N 24 30 13 16 - - -
24/01:00am - - - - - N 24 30 13 16 - - -
24/12:30am - - - - - N 32 39 17 21 - - -
24/12:00am - - - - - N 37 46 20 25 - - -
 
Date/Time
EST
Temp
°C
App
Temp
°C
Dew
Point
°C
Rel
Hum
%
Delta-T
°C
Wind Press
QNH
hPa
Press
MSL
hPa
Rain since
9am
mm
Dir  Spd
km/h
Gust
km/h
Spd
kts
Gust
kts
23/11:30pm - - - - - NNW 37 48 20 26 - - -
23/11:00pm - - - - - N 41 52 22 28 - - -
23/10:30pm - - - - - N 43 50 23 27 - - -
23/10:00pm - - - - - N 48 56 26 30 - - -
23/09:30pm - - - - - N 44 52 24 28 - - -
23/09:00pm - - - - - N 41 50 22 27 - - -
23/08:30pm - - - - - N 37 46 20 25 - - -
23/08:00pm - - - - - NW 22 28 12 15 - - -
23/07:30pm - - - - - N 33 43 18 23 - - -
23/07:00pm - - - - - N 35 43 19 23 - - -
23/06:30pm - - - - - N 33 39 18 21 - - -
23/06:00pm - - - - - N 32 39 17 21 - - -
23/05:30pm - - - - - N 33 39 18 21 - - -
23/05:00pm - - - - - N 33 39 18 21 - - -
23/04:30pm - - - - - NNE 19 24 10 13 - - -
23/04:00pm - - - - - NNE 19 24 10 13 - - -
23/03:30pm - - - - - N 33 39 18 21 - - -
23/03:00pm - - - - - N 32 39 17 21 - - -
23/02:30pm - - - - - N 22 32 12 17 - - -
23/02:26pm - - - - - N 11 32 6 17 - - -
23/02:00pm - - - - - N 2 7 1 4 - - -
23/01:30pm - - - - - N 2 4 1 2 - - -
23/01:00pm - - - - - CALM 0 2 0 1 - - -
23/12:30pm - - - - - N 7 30 4 16 - - -
23/12:00pm - - - - - N 24 28 13 15 - - -
23/11:30am - - - - - N 24 28 13 15 - - -
23/11:00am - - - - - N 24 28 13 15 - - -
23/10:30am - - - - - N 22 26 12 14 - - -
23/10:00am - - - - - N 20 24 11 13 - - -
23/09:30am - - - - - N 19 20 10 11 - - -
23/09:00am - - - - - N 20 24 11 13 - - -
23/08:30am - - - - - NW 17 20 9 11 - - -
23/08:00am - - - - - NNW 17 19 9 10 - - -
23/07:30am - - - - - NW 19 24 10 13 - - -
23/07:00am - - - - - NW 19 20 10 11 - - -
23/06:30am - - - - - NW 19 24 10 13 - - -
23/06:00am - - - - - NW 17 20 9 11 - - -
23/05:30am - - - - - NW 19 22 10 12 - - -

Latest Capital City Observations: Canberra | Sydney | Melbourne | Brisbane | Adelaide | Perth | Hobart | Darwin

Other formats

Comma delimited format used in spreadsheet applications
http://www.bom.gov.au/fwo/IDQ60901/IDQ60901.99497.axf

JavaScript Object Notation format (JSON) in row-major order
http://www.bom.gov.au/fwo/IDQ60901/IDQ60901.99497.json

Data quality

Most of these data are generated automatically and are frequently updated. Quality checks on data are not normally performed. It is possible for incorrect values to appear. Refer to information at About Latest Weather Observations and please check the disclaimer before using these data.